Terminal Aerodrome Forecast
Issued by NWS

Home | Current Version | Previous Version | Text Only | Print | Product List | Glossary Off
Versions: 1 2 3 4 5 6 7 8 9 10 11 12 13 14 15

000
FTUS43 KIWX 300100 AAA
TAFSBN
TAF AMD
KSBN 300149Z 3002/3024 20008KT P6SM SCT050 BKN100
      TEMPO 3002/3005 4SM SHRA OVC050
     FM301100 22008KT 5SM -SHRA VCTS SCT020 OVC040CB
     FM301600 29010KT 5SM -SHRA OVC020
     FM302000 34015KT 3SM -SHRA BR OVC012=

USA.gov is the U.S. government's official web portal to all federal, state and local government web resources and services.